createdAt,value
2023-10-27T00:00:49.754Z,98112.31
2023-10-27T00:03:17.758Z,98112.50
2023-10-27T00:05:45.496Z,98103.41
2023-10-27T00:08:14.987Z,98110.09
2023-10-27T00:10:42.810Z,98101.69
2023-10-27T00:13:10.416Z,98095.56
2023-10-27T00:15:38.148Z,98090.91
2023-10-27T00:18:06.156Z,98100.31
2023-10-27T00:20:33.810Z,98093.59
2023-10-27T00:23:01.315Z,98090.66
2023-10-27T00:25:29.110Z,98089.91
2023-10-27T00:27:56.695Z,98094.38
2023-10-27T00:30:24.226Z,98086.97
2023-10-27T00:32:52.046Z,98089.13
2023-10-27T00:35:19.900Z,98084.31
2023-10-27T00:37:47.461Z,98072.72
2023-10-27T00:40:15.308Z,98085.28
2023-10-27T00:42:43.005Z,98080.69
2023-10-27T00:45:10.805Z,98087.69
2023-10-27T00:47:38.703Z,98081.50
2023-10-27T00:50:06.931Z,98087.09
2023-10-27T00:52:34.729Z,98084.75
2023-10-27T00:55:02.895Z,98082.84
2023-10-27T00:57:30.668Z,98082.06
2023-10-27T00:59:59.172Z,98083.59
2023-10-27T01:02:27.600Z,98088.63
2023-10-27T01:04:55.372Z,98079.84
2023-10-27T01:07:25.157Z,98090.72
2023-10-27T01:09:53.246Z,98086.75
2023-10-27T01:12:20.942Z,98080.56
2023-10-27T01:14:48.499Z,98085.66
2023-10-27T01:17:16.245Z,98080.78
2023-10-27T01:19:44.298Z,98080.25
2023-10-27T01:22:16.281Z,98067.28
2023-10-27T01:24:44.256Z,98065.28
2023-10-27T01:27:11.912Z,98064.66
2023-10-27T01:29:39.515Z,98058.37
2023-10-27T01:32:07.414Z,98058.13
2023-10-27T01:34:35.118Z,98050.81
2023-10-27T01:37:02.713Z,98047.16
2023-10-27T01:39:30.788Z,98055.16
2023-10-27T01:41:58.216Z,98051.28
2023-10-27T01:44:25.733Z,98041.50
2023-10-27T01:46:53.539Z,98039.78
2023-10-27T01:49:21.003Z,98030.03
2023-10-27T01:51:48.730Z,98026.44
2023-10-27T01:54:16.730Z,98022.56
2023-10-27T01:56:44.310Z,98019.72
2023-10-27T01:59:11.899Z,98015.91
2023-10-27T02:01:40.297Z,98016.97
2023-10-27T02:04:08.304Z,98025.66
2023-10-27T02:06:35.819Z,98017.75
2023-10-27T02:09:03.740Z,97998.47
2023-10-27T02:11:31.960Z,97997.78
2023-10-27T02:13:59.459Z,98004.25
2023-10-27T02:16:27.127Z,98004.81
2023-10-27T02:18:54.946Z,97991.25
2023-10-27T02:21:22.879Z,97989.03
2023-10-27T02:23:50.805Z,97982.78
2023-10-27T02:26:18.460Z,97982.56
2023-10-27T02:28:46.577Z,97976.09
2023-10-27T02:31:14.407Z,97979.44
2023-10-27T02:33:42.093Z,97977.69
2023-10-27T02:36:10.139Z,97982.59
2023-10-27T02:38:38.215Z,97980.72
2023-10-27T02:41:10.603Z,97972.25
2023-10-27T02:43:42.091Z,97972.91
2023-10-27T02:46:13.577Z,97972.50
2023-10-27T02:48:43.348Z,97965.28
2023-10-27T02:51:13.218Z,97963.91
2023-10-27T02:53:41.660Z,97962.06
2023-10-27T02:56:10.621Z,97959.03
2023-10-27T02:58:38.448Z,97963.75
2023-10-27T03:01:11.564Z,97957.75
2023-10-27T03:03:40.258Z,97949.53
2023-10-27T03:06:08.783Z,97950.66
2023-10-27T03:08:36.306Z,97945.34
2023-10-27T03:11:04.124Z,97934.97
2023-10-27T03:13:33.079Z,97941.97
2023-10-27T03:16:01.623Z,97934.44
2023-10-27T03:18:29.316Z,97932.88
2023-10-27T03:20:58.612Z,97914.28
2023-10-27T03:23:29.153Z,97922.75
2023-10-27T03:25:57.088Z,97906.28
2023-10-27T03:28:24.919Z,97903.41
2023-10-27T03:30:52.478Z,97906.72
2023-10-27T03:33:20.366Z,97894.88
2023-10-27T03:35:48.607Z,97888.97
2023-10-27T03:38:16.292Z,97889.31
2023-10-27T03:40:44.885Z,97889.06
2023-10-27T03:43:12.456Z,97884.06
2023-10-27T03:45:40.434Z,97881.87
2023-10-27T03:48:08.337Z,97879.88
2023-10-27T03:50:36.304Z,97870.72
2023-10-27T03:53:04.362Z,97871.31
2023-10-27T03:55:32.223Z,97868.47
2023-10-27T03:58:20.151Z,97858.94
2023-10-27T04:00:50.818Z,97848.56
2023-10-27T04:03:18.805Z,97844.06
2023-10-27T04:05:46.418Z,97834.34
2023-10-27T04:08:14.149Z,97820.94
2023-10-27T04:10:42.561Z,97825.62
2023-10-27T04:13:10.095Z,97818.41
2023-10-27T04:15:37.704Z,97811.72
2023-10-27T04:18:05.785Z,97808.13
2023-10-27T04:20:33.549Z,97799.31
2023-10-27T04:23:01.603Z,97794.47
2023-10-27T04:25:29.582Z,97795.97
2023-10-27T04:27:57.413Z,97792.16
2023-10-27T04:30:26.091Z,97784.88
2023-10-27T04:32:54.007Z,97779.75
2023-10-27T04:35:21.749Z,97774.09
2023-10-27T04:37:49.394Z,97769.88
2023-10-27T04:40:17.352Z,97759.44
2023-10-27T04:42:48.442Z,97757.91
2023-10-27T04:45:17.409Z,97748.75
2023-10-27T04:47:45.548Z,97729.44
2023-10-27T04:50:13.229Z,97733.41
2023-10-27T04:52:40.913Z,97724.13
2023-10-27T04:55:11.479Z,97716.34
2023-10-27T04:57:40.537Z,97710.44
2023-10-27T05:00:09.628Z,97711.28
2023-10-27T05:02:37.591Z,97712.91
2023-10-27T05:05:05.717Z,97704.41
2023-10-27T05:07:38.489Z,97703.69
2023-10-27T05:10:09.149Z,97700.72
2023-10-27T05:12:37.615Z,97702.59
2023-10-27T05:15:06.283Z,97693.31
2023-10-27T05:17:36.078Z,97687.47
2023-10-27T05:20:06.732Z,97680.97
2023-10-27T05:22:34.705Z,97679.28
2023-10-27T05:25:06.956Z,97683.09
2023-10-27T05:27:34.980Z,97690.34
2023-10-27T05:30:03.366Z,97685.78
2023-10-27T05:32:34.152Z,97680.47
2023-10-27T05:35:02.220Z,97663.97
2023-10-27T05:37:30.064Z,97669.69
2023-10-27T05:39:57.616Z,97663.28
2023-10-27T05:42:25.789Z,97660.19
2023-10-27T05:44:53.303Z,97655.81
2023-10-27T05:47:20.855Z,97659.59
2023-10-27T05:49:49.125Z,97661.47
2023-10-27T05:52:17.358Z,97654.28
2023-10-27T05:54:47.211Z,97655.84
2023-10-27T05:57:16.377Z,97648.88
2023-10-27T05:59:44.439Z,97644.13
2023-10-27T06:02:15.720Z,97637.91
2023-10-27T06:04:44.671Z,97629.91
2023-10-27T06:07:16.838Z,97627.59
2023-10-27T06:09:45.796Z,97628.44
2023-10-27T06:12:13.635Z,97628.75
2023-10-27T06:14:45.845Z,97619.47
2023-10-27T06:17:14.727Z,97603.78
2023-10-27T06:20:16.756Z,97599.50
2023-10-27T06:22:46.099Z,97596.88
2023-10-27T06:25:13.910Z,97577.81
2023-10-27T06:27:41.432Z,97594.19
2023-10-27T06:30:09.538Z,97577.81
2023-10-27T06:32:37.375Z,97593.50
2023-10-27T06:35:05.357Z,97586.00
2023-10-27T06:37:33.519Z,97580.31
2023-10-27T06:40:02.689Z,97581.50
2023-10-27T06:42:32.001Z,97574.47
2023-10-27T06:45:01.769Z,97585.59
2023-10-27T06:47:29.737Z,97578.22
2023-10-27T06:49:57.638Z,97573.66
2023-10-27T06:52:25.584Z,97579.19
2023-10-27T06:54:53.241Z,97578.06
2023-10-27T06:57:20.854Z,97568.25
2023-10-27T06:59:48.881Z,97561.25
2023-10-27T07:02:16.630Z,97553.44
2023-10-27T07:04:44.545Z,97549.97
2023-10-27T07:07:25.279Z,97556.59
2023-10-27T07:09:55.466Z,97558.12
2023-10-27T07:12:23.557Z,97558.09
2023-10-27T07:14:51.272Z,97547.63
2023-10-27T07:17:18.767Z,97548.63
2023-10-27T07:19:46.713Z,97541.44
2023-10-27T07:22:14.908Z,97545.22
2023-10-27T07:24:42.513Z,97538.94
2023-10-27T07:27:10.458Z,97532.56
2023-10-27T07:29:37.960Z,97521.25
2023-10-27T07:32:06.082Z,97515.44
2023-10-27T07:34:34.515Z,97513.12
2023-10-27T07:37:05.340Z,97505.28
2023-10-27T07:39:33.137Z,97508.56
2023-10-27T07:42:01.052Z,97508.94
2023-10-27T07:44:28.554Z,97498.25
2023-10-27T07:46:56.187Z,97510.94
2023-10-27T07:49:24.523Z,97502.53
2023-10-27T07:51:52.394Z,97494.41
2023-10-27T07:54:19.867Z,97493.06
2023-10-27T07:56:47.778Z,97486.41
2023-10-27T07:59:15.584Z,97484.25
2023-10-27T08:01:43.250Z,97484.59
2023-10-27T08:04:11.509Z,97484.28
2023-10-27T08:06:39.164Z,97468.44
2023-10-27T08:09:07.867Z,97478.91
2023-10-27T08:11:35.728Z,97468.41
2023-10-27T08:14:05.482Z,97459.59
2023-10-27T08:16:33.342Z,97447.44
2023-10-27T08:19:02.658Z,97448.25
2023-10-27T08:21:30.467Z,97445.59
2023-10-27T08:23:58.009Z,97438.06
2023-10-27T08:26:25.939Z,97441.59
2023-10-27T08:28:53.374Z,97441.25
2023-10-27T08:32:03.358Z,97437.94
2023-10-27T08:34:31.672Z,97432.09
2023-10-27T08:36:59.268Z,97434.41
2023-10-27T08:39:27.184Z,97428.41
2023-10-27T08:41:55.360Z,97406.41
2023-10-27T08:44:25.819Z,97395.59
2023-10-27T08:46:55.248Z,97389.06
2023-10-27T08:49:23.368Z,97382.56
2023-10-27T08:51:50.936Z,97379.41
2023-10-27T08:54:19.195Z,97371.56
2023-10-27T08:56:47.166Z,97370.69
2023-10-27T08:59:15.444Z,97361.69
2023-10-27T09:01:44.778Z,97358.38
2023-10-27T09:04:14.213Z,97358.88
2023-10-27T09:06:43.123Z,97354.88
2023-10-27T09:09:13.571Z,97341.19
2023-10-27T09:11:43.443Z,97337.16
2023-10-27T09:14:18.826Z,97334.69
2023-10-27T09:16:47.420Z,97332.22
2023-10-27T09:19:22.948Z,97330.88
2023-10-27T09:21:50.866Z,97326.13
2023-10-27T09:24:25.723Z,97321.03
2023-10-27T09:26:54.509Z,97308.81
2023-10-27T09:29:22.673Z,97317.03
2023-10-27T09:31:51.647Z,97302.78
2023-10-27T09:34:27.127Z,97299.84
2023-10-27T09:36:57.113Z,97289.63
2023-10-27T09:39:25.254Z,97285.16
2023-10-27T09:42:04.771Z,97274.16
2023-10-27T09:44:53.231Z,97288.06
2023-10-27T09:47:46.428Z,97271.94
2023-10-27T09:50:15.816Z,97253.81
2023-10-27T09:52:48.136Z,97264.59
2023-10-27T09:55:18.310Z,97268.06
2023-10-27T09:57:46.705Z,97250.88
2023-10-27T10:00:17.645Z,97244.66
2023-10-27T10:02:45.735Z,97236.94
2023-10-27T10:05:13.403Z,97243.75
2023-10-27T10:07:44.816Z,97232.72
2023-10-27T10:10:19.676Z,97227.84
2023-10-27T10:13:02.943Z,97223.94
2023-10-27T10:15:32.898Z,97236.59
2023-10-27T10:18:01.997Z,97225.22
2023-10-27T10:20:45.946Z,97207.06
2023-10-27T10:23:13.737Z,97225.50
2023-10-27T10:25:54.549Z,97231.03
2023-10-27T10:28:28.506Z,97212.16
2023-10-27T10:31:08.315Z,97212.88
2023-10-27T10:33:40.259Z,97194.00
2023-10-27T10:36:19.519Z,97203.63
2023-10-27T10:38:58.558Z,97204.06
2023-10-27T10:41:54.748Z,97202.88
2023-10-27T10:44:22.697Z,97193.50
2023-10-27T10:46:51.207Z,97186.91
2023-10-27T10:49:28.225Z,97176.16
2023-10-27T10:51:59.014Z,97178.44
2023-10-27T10:54:34.046Z,97179.75
2023-10-27T10:57:09.931Z,97169.75
2023-10-27T10:59:38.093Z,97161.41
2023-10-27T11:02:07.950Z,97164.97
2023-10-27T11:07:06.825Z,97148.91
2023-10-27T11:09:34.777Z,97159.34
2023-10-27T11:12:04.915Z,97174.66
2023-10-27T11:14:42.862Z,97177.41
2023-10-27T11:17:12.998Z,97184.50
2023-10-27T11:19:54.738Z,97191.34
2023-10-27T11:22:24.992Z,97223.91
2023-10-27T11:24:53.887Z,97227.78
2023-10-27T11:27:26.218Z,97250.56
2023-10-27T11:30:02.982Z,97262.19
2023-10-27T11:32:32.392Z,97253.69
2023-10-27T11:35:00.518Z,97258.97
2023-10-27T11:37:30.888Z,97265.94
2023-10-27T11:40:12.822Z,97257.03
2023-10-27T11:42:40.753Z,97248.13
2023-10-27T11:45:08.363Z,97247.28
2023-10-27T11:47:57.066Z,97236.00
2023-10-27T11:50:25.365Z,97262.38
2023-10-27T11:52:52.977Z,97266.41
2023-10-27T11:55:21.088Z,97266.84
2023-10-27T11:57:49.597Z,97259.63
2023-10-27T12:00:17.183Z,97263.69
2023-10-27T12:02:45.076Z,97256.81
2023-10-27T12:05:12.646Z,97239.22
2023-10-27T12:07:40.274Z,97264.28
2023-10-27T12:10:12.252Z,97285.72
2023-10-27T12:12:40.097Z,97309.50
2023-10-27T12:15:08.832Z,97323.22
2023-10-27T12:17:36.411Z,97326.81
2023-10-27T12:20:07.984Z,97322.88
2023-10-27T12:22:36.124Z,97315.16
2023-10-27T12:25:07.170Z,97324.97
2023-10-27T12:27:34.655Z,97343.22
2023-10-27T12:30:03.032Z,97345.44
2023-10-27T12:32:34.181Z,97339.75
2023-10-27T12:35:02.270Z,97355.19
2023-10-27T12:37:32.231Z,97359.41
2023-10-27T12:39:59.951Z,97370.34
2023-10-27T12:42:29.711Z,97390.62
2023-10-27T12:44:58.482Z,97391.25
2023-10-27T12:47:29.838Z,97418.13
2023-10-27T12:49:59.831Z,97409.84
2023-10-27T12:52:28.700Z,97415.22
2023-10-27T12:54:59.228Z,97397.19
2023-10-27T12:57:27.301Z,97341.06
2023-10-27T12:59:55.974Z,97343.47
2023-10-27T13:02:25.010Z,97397.84
2023-10-27T13:04:53.372Z,97438.94
2023-10-27T13:07:21.165Z,97456.09
2023-10-27T13:09:48.680Z,97452.25
2023-10-27T13:12:17.044Z,97429.06
2023-10-27T13:14:44.853Z,97422.00
2023-10-27T13:17:13.074Z,97392.56
2023-10-27T13:19:41.238Z,97404.72
2023-10-27T13:22:09.302Z,97443.75
2023-10-27T13:24:39.621Z,97399.31
2023-10-27T13:27:09.911Z,97429.69
2023-10-27T13:29:38.561Z,97534.28
2023-10-27T13:32:06.464Z,97486.34
2023-10-27T13:34:34.896Z,97447.34
2023-10-27T13:37:03.372Z,97522.84
2023-10-27T13:39:32.801Z,97481.13
2023-10-27T13:42:03.066Z,97457.84
2023-10-27T13:44:31.173Z,97467.50
2023-10-27T13:47:00.921Z,97502.38
2023-10-27T13:49:28.898Z,97455.22
2023-10-27T13:51:56.759Z,97455.03
2023-10-27T13:54:24.820Z,97460.28
2023-10-27T13:56:52.766Z,97475.91
2023-10-27T13:59:20.254Z,97482.84
2023-10-27T14:01:49.610Z,97488.56
2023-10-27T14:04:18.158Z,97509.00
2023-10-27T14:06:48.962Z,97514.78
2023-10-27T14:09:16.973Z,97524.81
2023-10-27T14:11:46.391Z,97542.38
2023-10-27T14:14:16.934Z,97536.88
2023-10-27T14:16:45.197Z,97552.69
2023-10-27T14:19:49.700Z,97553.09
2023-10-27T14:22:18.382Z,97551.78
2023-10-27T14:24:47.599Z,97555.06
2023-10-27T14:27:16.686Z,97560.06
2023-10-27T14:29:44.761Z,97576.44
2023-10-27T14:32:12.439Z,97571.72
2023-10-27T14:34:41.701Z,97576.53
2023-10-27T14:37:09.681Z,97599.84
2023-10-27T14:39:42.329Z,97595.53
2023-10-27T14:42:10.287Z,97604.06
2023-10-27T14:44:38.077Z,97616.22
2023-10-27T14:47:05.784Z,97622.75
2023-10-27T14:49:33.853Z,97624.78
2023-10-27T14:52:01.463Z,97626.97
2023-10-27T14:54:37.322Z,97634.22
2023-10-27T14:57:05.409Z,97636.84
2023-10-27T14:59:33.323Z,97637.06
2023-10-27T15:02:01.382Z,97642.34
2023-10-27T15:04:29.416Z,97641.06
2023-10-27T15:06:58.081Z,97657.56
2023-10-27T15:09:25.616Z,97651.34
2023-10-27T15:11:53.402Z,97666.06
2023-10-27T15:14:20.944Z,97688.34
2023-10-27T15:16:48.840Z,97689.25
2023-10-27T15:19:16.999Z,97677.59
2023-10-27T15:21:45.239Z,97693.31
2023-10-27T15:24:12.971Z,97702.25
2023-10-27T15:26:40.913Z,97711.44
2023-10-27T15:29:08.794Z,97722.22
2023-10-27T15:31:38.617Z,97723.06
2023-10-27T15:34:06.940Z,97719.31
2023-10-27T15:36:34.646Z,97717.69
2023-10-27T15:39:05.445Z,97719.81
2023-10-27T15:41:40.017Z,97721.81
2023-10-27T15:44:08.192Z,97732.22
2023-10-27T15:46:36.668Z,97745.41
2023-10-27T15:49:04.462Z,97750.84
2023-10-27T15:51:31.943Z,97768.06
2023-10-27T15:54:01.286Z,97761.16
2023-10-27T15:56:30.659Z,97756.22
2023-10-27T15:59:03.399Z,97765.69
2023-10-27T16:01:31.709Z,97777.75
2023-10-27T16:03:59.893Z,97767.09
2023-10-27T16:06:27.921Z,97796.44
2023-10-27T16:08:56.753Z,97784.63
2023-10-27T16:11:25.394Z,97812.78
2023-10-27T16:13:52.937Z,97822.81
2023-10-27T16:16:20.749Z,97827.44
2023-10-27T16:18:49.227Z,97829.59
2023-10-27T16:21:17.309Z,97852.19
2023-10-27T16:23:45.044Z,97853.41
2023-10-27T16:26:15.290Z,97850.56
2023-10-27T16:28:46.018Z,97862.84
2023-10-27T16:31:13.957Z,97867.63
2023-10-27T16:33:43.240Z,97872.22
2023-10-27T16:36:11.577Z,97874.53
2023-10-27T16:38:40.939Z,97884.59
2023-10-27T16:41:09.763Z,97895.66
2023-10-27T16:43:45.698Z,97889.56
2023-10-27T16:46:14.233Z,97902.38
2023-10-27T16:48:42.127Z,97904.13
2023-10-27T16:51:14.604Z,97905.34
2023-10-27T16:53:43.245Z,97909.72
2023-10-27T16:56:14.112Z,97932.47
2023-10-27T16:58:42.434Z,97923.62
2023-10-27T17:01:10.474Z,97931.47
2023-10-27T17:04:04.860Z,97932.84
2023-10-27T17:06:38.774Z,97935.13
2023-10-27T17:09:31.872Z,97941.94
2023-10-27T17:12:01.546Z,97956.66
2023-10-27T17:14:29.931Z,97965.03
2023-10-27T17:16:57.676Z,97977.81
2023-10-27T17:19:25.882Z,97981.72
2023-10-27T17:21:58.550Z,97987.16
2023-10-27T17:24:26.973Z,97984.62
2023-10-27T17:26:56.030Z,97992.75
2023-10-27T17:29:24.026Z,98004.53
2023-10-27T17:31:52.235Z,98008.59
2023-10-27T17:34:20.417Z,98017.13
2023-10-27T17:36:51.393Z,98035.16
2023-10-27T17:39:19.265Z,98038.97
2023-10-27T17:41:47.760Z,98039.25
2023-10-27T17:44:18.742Z,98042.19
2023-10-27T17:46:47.235Z,98054.06
2023-10-27T17:49:18.417Z,98058.28
2023-10-27T17:51:46.309Z,98067.81
2023-10-27T17:54:14.472Z,98085.44
2023-10-27T17:56:42.490Z,98089.09
2023-10-27T17:59:10.524Z,98096.34
2023-10-27T18:01:39.097Z,98101.41
2023-10-27T18:04:08.067Z,98099.44
2023-10-27T18:06:38.368Z,98110.66
2023-10-27T18:09:06.451Z,98110.41
2023-10-27T18:11:36.339Z,98101.66
2023-10-27T18:14:05.396Z,98101.44
2023-10-27T18:16:33.616Z,98109.28
2023-10-27T18:19:01.747Z,98108.22
2023-10-27T18:21:31.334Z,98120.41
2023-10-27T18:23:59.859Z,98119.00
2023-10-27T18:26:27.741Z,98112.16
2023-10-27T18:28:55.355Z,98121.03
2023-10-27T18:31:24.028Z,98126.63
2023-10-27T18:33:52.321Z,98125.75
2023-10-27T18:36:22.816Z,98122.78
2023-10-27T18:38:50.546Z,98123.09
2023-10-27T18:41:18.828Z,98119.97
2023-10-27T18:43:49.388Z,98134.91
2023-10-27T18:46:19.144Z,98135.25
2023-10-27T18:48:50.277Z,98141.41
2023-10-27T18:51:19.172Z,98143.22
2023-10-27T18:53:49.949Z,98149.97
2023-10-27T18:56:20.938Z,98162.06
2023-10-27T18:58:49.041Z,98154.97
2023-10-27T19:01:17.745Z,98158.91
2023-10-27T19:03:49.681Z,98160.19
2023-10-27T19:06:19.488Z,98165.28
2023-10-27T19:08:47.632Z,98171.06
2023-10-27T19:11:16.169Z,98171.66
2023-10-27T19:13:44.296Z,98174.47
2023-10-27T19:16:15.429Z,98179.41
2023-10-27T19:18:47.384Z,98190.19
2023-10-27T19:21:18.412Z,98198.66
2023-10-27T19:23:51.504Z,98203.47
2023-10-27T19:26:21.602Z,98207.12
2023-10-27T19:28:51.061Z,98214.56
2023-10-27T19:31:20.934Z,98215.31
2023-10-27T19:33:49.557Z,98208.06
2023-10-27T19:36:20.561Z,98233.53
2023-10-27T19:38:50.073Z,98238.31
2023-10-27T19:41:17.877Z,98235.78
2023-10-27T19:46:08.987Z,98260.16
2023-10-27T19:48:38.902Z,98260.16
2023-10-27T19:51:06.885Z,98254.28
2023-10-27T19:53:37.430Z,98274.91
2023-10-27T19:56:10.887Z,98284.94
2023-10-27T19:58:38.945Z,98284.25
2023-10-27T20:01:18.838Z,98274.19
2023-10-27T20:03:49.151Z,98290.12
2023-10-27T20:06:17.102Z,98287.06
2023-10-27T20:08:44.948Z,98299.88
2023-10-27T20:11:14.538Z,98299.38
2023-10-27T20:13:45.217Z,98310.50
2023-10-27T20:16:14.967Z,98318.97
2023-10-27T20:18:43.801Z,98324.87
2023-10-27T20:21:12.838Z,98326.84
2023-10-27T20:23:43.881Z,98340.41
2023-10-27T20:26:12.098Z,98346.63
2023-10-27T20:28:41.216Z,98352.00
2023-10-27T20:31:09.206Z,98353.66
2023-10-27T20:33:37.183Z,98360.09
2023-10-27T20:36:06.702Z,98360.16
2023-10-27T20:38:35.176Z,98354.00
2023-10-27T20:41:03.176Z,98364.19
2023-10-27T20:43:31.276Z,98363.88
2023-10-27T20:46:04.297Z,98374.41
2023-10-27T20:48:32.457Z,98373.66
2023-10-27T20:51:04.546Z,98376.81
2023-10-27T20:53:32.638Z,98378.16
2023-10-27T20:56:00.726Z,98387.00
2023-10-27T20:58:28.879Z,98390.84
2023-10-27T21:00:56.691Z,98393.56
2023-10-27T21:03:24.679Z,98400.22
2023-10-27T21:05:52.957Z,98416.53
2023-10-27T21:08:20.857Z,98406.09
2023-10-27T21:10:52.241Z,98403.66
2023-10-27T21:13:20.583Z,98403.03
2023-10-27T21:15:48.154Z,98400.78
2023-10-27T21:18:16.140Z,98402.38
2023-10-27T21:20:44.263Z,98402.94
2023-10-27T21:23:11.869Z,98401.25
2023-10-27T21:25:40.692Z,98401.03
2023-10-27T21:28:09.626Z,98403.97
2023-10-27T21:30:37.494Z,98404.12
2023-10-27T21:33:05.734Z,98418.56
2023-10-27T21:35:34.032Z,98418.38
2023-10-27T21:38:01.878Z,98417.25
2023-10-27T21:40:30.202Z,98417.94
2023-10-27T21:42:58.898Z,98420.72
2023-10-27T21:45:27.213Z,98416.59
2023-10-27T21:47:55.289Z,98409.50
2023-10-27T21:50:23.625Z,98407.69
2023-10-27T21:52:51.530Z,98410.38
2023-10-27T21:55:19.859Z,98403.19
2023-10-27T21:57:48.298Z,98409.66
2023-10-27T22:00:32.599Z,98417.66
2023-10-27T22:03:01.616Z,98425.84
2023-10-27T22:05:29.441Z,98424.28
2023-10-27T22:07:57.458Z,98425.31
2023-10-27T22:10:25.574Z,98436.69
2023-10-27T22:12:53.388Z,98432.19
2023-10-27T22:15:24.603Z,98435.31
2023-10-27T22:17:53.023Z,98439.84
2023-10-27T22:20:20.677Z,98433.34
2023-10-27T22:22:49.930Z,98435.25
2023-10-27T22:25:19.388Z,98433.50
2023-10-27T22:27:47.074Z,98434.09
2023-10-27T22:30:15.120Z,98443.63
2023-10-27T22:32:43.173Z,98442.06
2023-10-27T22:35:11.639Z,98439.25
2023-10-27T22:37:42.160Z,98450.50
2023-10-27T22:40:11.168Z,98453.41
2023-10-27T22:42:39.074Z,98453.37
2023-10-27T22:45:07.316Z,98454.31
2023-10-27T22:47:35.393Z,98455.88
2023-10-27T22:50:05.657Z,98457.28
2023-10-27T22:52:33.233Z,98459.31
2023-10-27T22:55:01.527Z,98465.84
2023-10-27T22:57:31.280Z,98460.41
2023-10-27T22:59:59.340Z,98465.22
2023-10-27T23:02:27.845Z,98466.28
2023-10-27T23:04:56.312Z,98468.06
2023-10-27T23:07:25.406Z,98462.50
2023-10-27T23:09:53.496Z,98473.91
2023-10-27T23:12:21.516Z,98465.16
2023-10-27T23:14:49.151Z,98464.91
2023-10-27T23:17:17.640Z,98464.09
2023-10-27T23:19:45.673Z,98470.41
2023-10-27T23:22:13.919Z,98479.81
2023-10-27T23:24:43.437Z,98489.75
2023-10-27T23:27:11.334Z,98484.78
2023-10-27T23:29:38.790Z,98486.94
2023-10-27T23:32:07.196Z,98491.66
2023-10-27T23:34:35.304Z,98496.91
2023-10-27T23:37:03.858Z,98505.03
2023-10-27T23:39:32.546Z,98518.94
2023-10-27T23:42:00.646Z,98522.66
2023-10-27T23:44:30.736Z,98523.34
2023-10-27T23:46:59.015Z,98531.19
2023-10-27T23:49:26.777Z,98530.87
2023-10-27T23:51:54.274Z,98538.75
2023-10-27T23:54:22.877Z,98543.22
2023-10-27T23:56:50.737Z,98549.69
2023-10-27T23:59:18.595Z,98548.44
